createdAt,value
2018-08-03T00:00:15.468Z,0
2018-08-03T00:00:56.319Z,0
2018-08-03T00:01:37.095Z,0
2018-08-03T00:02:17.905Z,0
2018-08-03T00:02:58.618Z,0
2018-08-03T00:03:39.380Z,0
2018-08-03T00:04:20.244Z,0
2018-08-03T00:05:01.025Z,0
2018-08-03T00:05:41.760Z,0
2018-08-03T00:06:22.510Z,0
2018-08-03T00:07:03.290Z,0
2018-08-03T00:07:44.129Z,0
2018-08-03T00:08:24.863Z,0
2018-08-03T00:09:05.636Z,0
2018-08-03T00:09:46.465Z,0
2018-08-03T00:10:27.291Z,0
2018-08-03T00:11:08.112Z,0
2018-08-03T00:11:48.863Z,0
2018-08-03T00:12:29.634Z,0
2018-08-03T00:13:10.495Z,0
2018-08-03T00:13:51.245Z,0
2018-08-03T00:14:31.992Z,0
2018-08-03T00:15:12.722Z,0
2018-08-03T00:15:53.496Z,0
2018-08-03T00:16:34.318Z,0
2018-08-03T00:17:15.152Z,0
2018-08-03T00:17:55.946Z,0
2018-08-03T00:18:36.680Z,0
2018-08-03T00:19:17.475Z,0
2018-08-03T00:19:58.287Z,0
2018-08-03T00:20:39.089Z,0
2018-08-03T00:21:19.856Z,0
2018-08-03T00:22:00.588Z,0
2018-08-03T00:22:41.424Z,0
2018-08-03T00:23:22.202Z,0
2018-08-03T00:24:03.042Z,0
2018-08-03T00:24:43.745Z,0
2018-08-03T00:25:24.574Z,0
2018-08-03T00:26:05.369Z,0
2018-08-03T00:26:46.130Z,0
2018-08-03T00:27:26.881Z,0
2018-08-03T00:28:07.601Z,0
2018-08-03T00:28:48.428Z,0
2018-08-03T00:29:29.231Z,0
2018-08-03T00:30:10.036Z,0
2018-08-03T00:30:50.807Z,0
2018-08-03T00:31:31.643Z,0
2018-08-03T00:32:12.459Z,0
2018-08-03T00:32:53.310Z,0
2018-08-03T00:33:34.084Z,0
2018-08-03T00:34:14.847Z,0
2018-08-03T00:34:55.540Z,0
2018-08-03T00:35:36.380Z,0
2018-08-03T00:36:17.183Z,0
2018-08-03T00:36:58.001Z,0
2018-08-03T00:37:38.733Z,0
2018-08-03T00:38:19.506Z,0
2018-08-03T00:39:00.359Z,0
2018-08-03T00:39:41.116Z,0
2018-08-03T00:40:21.862Z,0
2018-08-03T00:41:02.632Z,0
2018-08-03T00:41:43.407Z,0
2018-08-03T00:42:24.197Z,0
2018-08-03T00:43:04.913Z,0
2018-08-03T00:43:45.644Z,0
2018-08-03T00:44:26.467Z,0
2018-08-03T00:45:07.281Z,0
2018-08-03T00:45:48.091Z,0
2018-08-03T00:46:28.897Z,0
2018-08-03T00:47:09.671Z,0
2018-08-03T00:47:50.460Z,0
2018-08-03T00:48:31.188Z,0
2018-08-03T00:49:11.937Z,0
2018-08-03T00:51:28.324Z,0
2018-08-03T00:52:09.161Z,0
2018-08-03T00:56:14.708Z,0
2018-08-03T01:00:05.811Z,0
2018-08-03T01:00:46.588Z,0
2018-08-03T01:03:02.035Z,0
2018-08-03T01:13:10.944Z,0
2018-08-03T01:13:51.688Z,0
2018-08-03T01:14:32.542Z,0
2018-08-03T01:15:13.287Z,0
2018-08-03T01:15:54.034Z,0
2018-08-03T01:16:34.766Z,0
2018-08-03T01:17:15.575Z,0
2018-08-03T01:17:56.391Z,0
2018-08-03T01:18:37.193Z,0
2018-08-03T01:19:17.951Z,0
2018-08-03T01:19:58.740Z,0
2018-08-03T01:20:39.458Z,0
2018-08-03T01:21:20.221Z,0
2018-08-03T01:22:01.098Z,0
2018-08-03T01:22:41.851Z,0
2018-08-03T01:23:22.575Z,0
2018-08-03T01:24:03.388Z,0
2018-08-03T01:24:44.266Z,0
2018-08-03T01:25:25.108Z,0
2018-08-03T01:26:05.832Z,0
2018-08-03T01:26:46.572Z,0
2018-08-03T01:27:27.395Z,0
2018-08-03T01:28:08.163Z,0
2018-08-03T01:28:48.944Z,0
2018-08-03T01:29:29.677Z,0
2018-08-03T01:30:10.447Z,0
2018-08-03T01:30:51.279Z,0
2018-08-03T01:31:32.018Z,0
2018-08-03T01:32:12.716Z,0
2018-08-03T01:32:53.563Z,0
2018-08-03T01:33:34.433Z,0
2018-08-03T01:34:15.227Z,0
2018-08-03T01:34:56.012Z,0
2018-08-03T01:35:36.775Z,0
2018-08-03T01:36:17.490Z,0
2018-08-03T01:36:58.287Z,0
2018-08-03T01:37:39.084Z,0
2018-08-03T01:38:19.917Z,0
2018-08-03T01:39:00.699Z,0
2018-08-03T01:39:41.422Z,0
2018-08-03T01:40:22.246Z,0
2018-08-03T01:41:03.009Z,0
2018-08-03T01:41:43.787Z,0
2018-08-03T01:42:24.541Z,0
2018-08-03T01:43:05.322Z,0
2018-08-03T01:43:46.169Z,0
2018-08-03T01:44:26.950Z,0
2018-08-03T01:45:07.651Z,0
2018-08-03T01:45:48.477Z,0
2018-08-03T01:46:29.274Z,0
2018-08-03T01:47:10.064Z,0
2018-08-03T01:47:50.809Z,0
2018-08-03T01:48:31.522Z,0
2018-08-03T01:49:12.356Z,0
2018-08-03T01:49:53.123Z,0
2018-08-03T01:50:33.870Z,0
2018-08-03T01:51:14.620Z,0
2018-08-03T01:51:55.422Z,0
2018-08-03T01:52:36.210Z,0
2018-08-03T01:53:17.020Z,0
2018-08-03T01:53:57.823Z,0
2018-08-03T01:54:38.521Z,0
2018-08-03T01:55:19.231Z,0
2018-08-03T01:55:59.987Z,0
2018-08-03T01:56:40.841Z,0
2018-08-03T01:57:21.648Z,0
2018-08-03T01:58:02.394Z,0
2018-08-03T01:58:43.227Z,0
2018-08-03T01:59:23.994Z,0
2018-08-03T02:00:04.839Z,0
2018-08-03T02:00:45.632Z,0
2018-08-03T02:01:26.327Z,0
2018-08-03T02:02:07.195Z,0
2018-08-03T02:02:47.985Z,0
2018-08-03T02:03:28.715Z,0
2018-08-03T02:04:09.474Z,0
2018-08-03T02:04:50.253Z,0
2018-08-03T02:05:31.081Z,0
2018-08-03T02:06:11.839Z,0
2018-08-03T02:06:52.634Z,0
2018-08-03T02:07:33.501Z,0
2018-08-03T02:08:14.314Z,0
2018-08-03T02:08:55.208Z,0
2018-08-03T02:09:35.964Z,0
2018-08-03T02:10:16.678Z,0
2018-08-03T02:10:57.409Z,0
2018-08-03T02:11:38.207Z,0
2018-08-03T02:12:18.980Z,0
2018-08-03T02:12:59.844Z,0
2018-08-03T02:13:40.624Z,0
2018-08-03T02:14:21.399Z,0
2018-08-03T02:15:02.165Z,0
2018-08-03T02:15:42.956Z,0
2018-08-03T02:16:23.684Z,0
2018-08-03T02:17:04.380Z,0
2018-08-03T02:17:45.155Z,0
2018-08-03T02:18:25.988Z,0
2018-08-03T02:19:06.862Z,0
2018-08-03T02:19:47.680Z,0
2018-08-03T02:20:28.407Z,0
2018-08-03T02:21:09.139Z,0
2018-08-03T02:21:49.885Z,0
2018-08-03T02:22:30.701Z,0
2018-08-03T02:23:11.499Z,0
2018-08-03T02:23:52.185Z,0
2018-08-03T02:24:32.990Z,0
2018-08-03T02:25:13.813Z,0
2018-08-03T02:25:54.666Z,0
2018-08-03T02:26:35.429Z,0
2018-08-03T02:27:16.180Z,0
2018-08-03T02:27:56.934Z,0
2018-08-03T02:28:37.703Z,0
2018-08-03T02:29:18.579Z,0
2018-08-03T02:29:59.371Z,0
2018-08-03T02:30:40.173Z,0
2018-08-03T02:31:20.974Z,0
2018-08-03T02:32:01.705Z,0
2018-08-03T02:32:42.545Z,0
2018-08-03T02:33:23.341Z,0
2018-08-03T02:34:04.058Z,0
2018-08-03T02:34:44.817Z,0
2018-08-03T02:35:25.566Z,0
2018-08-03T02:36:06.394Z,0
2018-08-03T02:36:47.162Z,0
2018-08-03T02:37:27.926Z,0
2018-08-03T02:38:08.766Z,0
2018-08-03T02:38:49.592Z,0
2018-08-03T02:39:30.350Z,0
2018-08-03T02:40:11.144Z,0
2018-08-03T02:40:51.977Z,0
2018-08-03T02:41:32.830Z,0
2018-08-03T02:42:13.617Z,0
2018-08-03T02:42:54.354Z,0
2018-08-03T02:43:35.101Z,0
2018-08-03T02:44:15.880Z,0
2018-08-03T02:44:56.728Z,0
2018-08-03T02:45:37.624Z,0
2018-08-03T02:46:18.417Z,0
2018-08-03T02:46:59.157Z,0
2018-08-03T02:47:39.848Z,0
2018-08-03T02:48:20.553Z,0
2018-08-03T02:49:01.372Z,0
2018-08-03T02:49:42.133Z,0
2018-08-03T02:50:22.936Z,0
2018-08-03T02:51:03.789Z,0
2018-08-03T02:51:44.634Z,0
2018-08-03T02:52:25.440Z,0
2018-08-03T02:53:06.214Z,0
2018-08-03T02:53:46.961Z,0
2018-08-03T02:54:27.800Z,0
2018-08-03T02:55:08.538Z,0
2018-08-03T02:55:49.421Z,0
2018-08-03T02:56:30.244Z,0
2018-08-03T02:57:11.202Z,0
2018-08-03T02:57:51.956Z,0
2018-08-03T02:58:32.742Z,0
2018-08-03T02:59:13.623Z,0
2018-08-03T02:59:54.335Z,0
2018-08-03T03:00:35.069Z,0
2018-08-03T03:01:15.787Z,0
2018-08-03T03:01:56.606Z,0
2018-08-03T03:02:37.410Z,0
2018-08-03T03:03:18.256Z,0
2018-08-03T03:03:58.989Z,0
2018-08-03T03:04:39.763Z,0
2018-08-03T03:05:20.542Z,0
2018-08-03T03:06:01.278Z,0
2018-08-03T03:06:42.125Z,0
2018-08-03T03:07:22.935Z,0
2018-08-03T03:08:03.652Z,0
2018-08-03T03:08:44.524Z,0
2018-08-03T03:09:25.337Z,0
2018-08-03T03:10:06.194Z,0
2018-08-03T03:10:46.933Z,0
2018-08-03T03:11:27.711Z,0
2018-08-03T03:12:08.515Z,0
2018-08-03T03:12:49.228Z,0
2018-08-03T03:13:29.957Z,0
2018-08-03T03:14:10.684Z,0
2018-08-03T03:14:51.452Z,0
2018-08-03T03:15:32.276Z,0
2018-08-03T03:16:13.010Z,0
2018-08-03T03:16:53.794Z,0
2018-08-03T03:17:34.615Z,0
2018-08-03T03:18:15.451Z,0
2018-08-03T03:18:56.251Z,0
2018-08-03T03:19:37.044Z,0
2018-08-03T03:20:17.740Z,0
2018-08-03T03:20:58.504Z,0
2018-08-03T03:21:39.335Z,0
2018-08-03T03:22:20.179Z,0
2018-08-03T03:23:01.106Z,0
2018-08-03T03:23:41.849Z,0
2018-08-03T03:24:22.607Z,0
2018-08-03T03:25:03.558Z,0
2018-08-03T03:25:44.282Z,0
2018-08-03T03:26:25.004Z,0
2018-08-03T03:27:05.743Z,0
2018-08-03T03:27:46.512Z,0
2018-08-03T03:28:27.345Z,0
2018-08-03T03:29:08.100Z,0
2018-08-03T03:29:48.888Z,0
2018-08-03T03:30:29.617Z,0
2018-08-03T03:31:10.337Z,0
2018-08-03T03:31:51.041Z,0
2018-08-03T03:32:31.934Z,0
2018-08-03T03:33:12.609Z,0
2018-08-03T03:33:53.357Z,0
2018-08-03T03:34:34.117Z,0
2018-08-03T03:35:14.969Z,0
2018-08-03T03:35:55.931Z,0
2018-08-03T03:36:36.741Z,0
2018-08-03T03:37:17.522Z,0
2018-08-03T03:37:58.225Z,0
2018-08-03T03:38:39.113Z,0
2018-08-03T03:39:19.912Z,0
2018-08-03T03:40:00.756Z,0
2018-08-03T03:40:41.666Z,0
2018-08-03T03:41:22.425Z,0
2018-08-03T03:42:03.236Z,0
2018-08-03T03:42:44.086Z,0
2018-08-03T03:43:24.831Z,0
2018-08-03T03:44:05.714Z,0
2018-08-03T03:44:46.461Z,0
2018-08-03T03:45:27.320Z,0
2018-08-03T03:46:08.164Z,0
2018-08-03T03:46:48.927Z,0
2018-08-03T03:47:29.738Z,0
2018-08-03T03:48:10.547Z,0
2018-08-03T03:48:51.431Z,0
2018-08-03T03:49:32.223Z,0
2018-08-03T03:50:12.973Z,0
2018-08-03T03:50:53.895Z,0
2018-08-03T03:51:34.640Z,0
2018-08-03T03:52:15.357Z,0
2018-08-03T03:52:56.139Z,0
2018-08-03T03:53:36.857Z,0
2018-08-03T03:54:17.702Z,0
2018-08-03T03:54:58.551Z,0
2018-08-03T03:55:39.390Z,0
2018-08-03T03:56:20.118Z,0
2018-08-03T03:57:00.886Z,0
2018-08-03T03:57:41.619Z,0
2018-08-03T03:58:22.373Z,0
2018-08-03T03:59:03.163Z,0
2018-08-03T03:59:43.898Z,0
2018-08-03T04:00:24.633Z,0
2018-08-03T04:01:05.494Z,0
2018-08-03T04:01:46.275Z,0
2018-08-03T04:02:27.099Z,0
2018-08-03T04:03:07.807Z,0
2018-08-03T04:03:48.632Z,0
2018-08-03T04:04:29.449Z,0
2018-08-03T04:05:10.167Z,0
2018-08-03T04:05:50.934Z,0
2018-08-03T04:06:31.672Z,0
2018-08-03T04:07:12.473Z,0
2018-08-03T04:07:53.294Z,0
2018-08-03T04:08:34.045Z,0
2018-08-03T04:09:14.813Z,0
2018-08-03T04:09:55.640Z,0
2018-08-03T04:10:36.373Z,0
2018-08-03T04:11:17.198Z,0
2018-08-03T04:11:57.969Z,0
2018-08-03T04:12:38.698Z,0
2018-08-03T04:13:19.470Z,0
2018-08-03T04:14:00.239Z,0
2018-08-03T04:14:41.067Z,0
2018-08-03T04:15:21.901Z,0
2018-08-03T04:16:02.616Z,0
2018-08-03T04:16:43.403Z,0
2018-08-03T04:17:24.179Z,0
2018-08-03T04:18:04.951Z,0
2018-08-03T04:18:45.685Z,0
2018-08-03T04:19:26.439Z,0
2018-08-03T04:20:07.239Z,0
2018-08-03T04:20:48.083Z,0
2018-08-03T04:21:28.807Z,0
2018-08-03T04:22:09.562Z,0
2018-08-03T04:22:50.401Z,0
2018-08-03T04:23:31.231Z,0
2018-08-03T04:24:12.012Z,0
2018-08-03T04:24:52.767Z,0
2018-08-03T04:25:33.554Z,0
2018-08-03T04:26:14.381Z,0
2018-08-03T04:26:55.097Z,0
2018-08-03T04:27:35.817Z,0
2018-08-03T04:28:16.583Z,0
2018-08-03T04:28:57.395Z,0
2018-08-03T04:29:38.256Z,0
2018-08-03T04:30:19.106Z,0
2018-08-03T04:30:59.886Z,0
2018-08-03T04:31:40.588Z,0
2018-08-03T04:32:21.300Z,0
2018-08-03T04:33:02.068Z,0
2018-08-03T04:33:42.902Z,0
2018-08-03T04:34:23.638Z,0
2018-08-03T04:35:04.400Z,0
2018-08-03T04:35:45.179Z,0
2018-08-03T04:36:25.992Z,0
2018-08-03T04:37:06.866Z,0
2018-08-03T04:37:47.556Z,0
2018-08-03T04:38:28.318Z,0
2018-08-03T04:39:09.045Z,0
2018-08-03T04:39:49.852Z,0
2018-08-03T04:40:30.683Z,0
2018-08-03T04:41:11.487Z,0
2018-08-03T04:41:52.277Z,0
2018-08-03T04:42:33.039Z,0
2018-08-03T04:43:13.839Z,0
2018-08-03T04:43:54.658Z,0
2018-08-03T04:44:35.427Z,0
2018-08-03T04:45:16.155Z,0
2018-08-03T04:45:56.852Z,0
2018-08-03T04:46:37.677Z,0
2018-08-03T04:47:18.509Z,0
2018-08-03T04:47:59.373Z,0
2018-08-03T04:48:40.134Z,0
2018-08-03T04:49:20.824Z,0
2018-08-03T04:50:01.548Z,0
2018-08-03T04:50:42.388Z,0
2018-08-03T04:51:23.192Z,0
2018-08-03T04:52:03.958Z,0
2018-08-03T04:52:44.794Z,0
2018-08-03T04:53:25.651Z,0
2018-08-03T04:54:06.436Z,0
2018-08-03T04:54:47.345Z,0
2018-08-03T04:55:28.035Z,0
2018-08-03T04:56:08.852Z,0
2018-08-03T04:56:49.710Z,0
2018-08-03T04:57:30.448Z,0
2018-08-03T04:58:11.156Z,0
2018-08-03T04:58:51.867Z,0
2018-08-03T04:59:32.683Z,0
2018-08-03T05:00:13.492Z,0
2018-08-03T05:00:54.225Z,0
2018-08-03T05:01:35.072Z,0
2018-08-03T05:02:15.870Z,0
2018-08-03T05:02:56.639Z,0
2018-08-03T05:03:37.464Z,0
2018-08-03T05:04:18.186Z,0
2018-08-03T05:04:58.971Z,0
2018-08-03T05:05:39.715Z,0
2018-08-03T05:06:20.547Z,0
2018-08-03T05:07:01.434Z,0
2018-08-03T05:07:42.246Z,0
2018-08-03T05:08:22.992Z,0
2018-08-03T05:09:03.767Z,0
2018-08-03T05:09:44.588Z,0
2018-08-03T05:10:25.342Z,0
2018-08-03T05:11:06.062Z,0
2018-08-03T05:11:46.792Z,0
2018-08-03T05:12:27.603Z,0
2018-08-03T05:13:08.467Z,0
2018-08-03T05:13:49.285Z,0
2018-08-03T05:14:30.033Z,0
2018-08-03T05:15:10.752Z,0
2018-08-03T05:15:51.443Z,0
2018-08-03T05:16:32.215Z,0
2018-08-03T05:17:13.005Z,0
2018-08-03T05:17:53.766Z,0
2018-08-03T05:18:34.534Z,0
2018-08-03T05:19:15.333Z,0
2018-08-03T05:19:56.161Z,0
2018-08-03T05:20:36.946Z,0
2018-08-03T05:21:17.662Z,0
2018-08-03T05:21:58.411Z,0
2018-08-03T05:22:39.167Z,0
2018-08-03T05:23:20.035Z,0
2018-08-03T05:24:00.871Z,0
2018-08-03T05:24:41.691Z,0
2018-08-03T05:25:22.477Z,0
2018-08-03T05:26:03.229Z,0
2018-08-03T05:26:44.045Z,0
2018-08-03T05:27:24.850Z,0
2018-08-03T05:28:05.600Z,0
2018-08-03T05:28:46.339Z,0
2018-08-03T05:29:27.133Z,0
2018-08-03T05:30:07.924Z,0
2018-08-03T05:30:48.672Z,0
2018-08-03T05:31:29.416Z,0
2018-08-03T05:32:10.282Z,0
2018-08-03T05:32:51.097Z,0
2018-08-03T05:33:31.909Z,0
2018-08-03T05:34:12.685Z,0
2018-08-03T05:34:53.474Z,0
2018-08-03T05:35:34.335Z,0
2018-08-03T05:36:14.975Z,5
2018-08-03T05:36:55.700Z,5
2018-08-03T05:37:36.423Z,5
2018-08-03T05:38:17.280Z,5
2018-08-03T05:38:58.145Z,5
2018-08-03T05:39:38.969Z,5
2018-08-03T05:40:19.735Z,5
2018-08-03T05:41:00.540Z,5
2018-08-03T05:41:41.271Z,5
2018-08-03T05:42:22.055Z,5
2018-08-03T05:43:02.862Z,5
2018-08-03T05:43:43.646Z,5
2018-08-03T05:44:24.384Z,5
2018-08-03T05:45:05.184Z,5
2018-08-03T05:45:46.062Z,5
2018-08-03T05:46:26.893Z,5
2018-08-03T05:47:07.668Z,5
2018-08-03T05:47:48.408Z,5
2018-08-03T05:48:29.227Z,5
2018-08-03T05:49:10.062Z,5
2018-08-03T05:49:50.852Z,5
2018-08-03T05:50:31.679Z,5
2018-08-03T05:51:12.502Z,5
2018-08-03T05:51:53.235Z,5
2018-08-03T05:52:34.050Z,5
2018-08-03T05:53:14.890Z,5
2018-08-03T05:53:55.639Z,5
2018-08-03T05:54:36.406Z,5
2018-08-03T05:55:17.145Z,5
2018-08-03T05:55:58.039Z,5
2018-08-03T05:56:38.819Z,5
2018-08-03T05:57:19.619Z,5
2018-08-03T05:58:00.452Z,5
2018-08-03T05:58:41.114Z,5
2018-08-03T05:59:21.864Z,5
2018-08-03T06:00:02.668Z,5
2018-08-03T06:00:43.523Z,5
2018-08-03T06:01:24.870Z,5
2018-08-03T06:02:05.746Z,10
2018-08-03T06:02:46.555Z,10
2018-08-03T06:03:27.368Z,10
2018-08-03T06:04:08.209Z,10
2018-08-03T06:04:48.919Z,10
2018-08-03T06:05:29.717Z,10
2018-08-03T06:06:10.497Z,10
2018-08-03T06:06:51.300Z,10
2018-08-03T06:07:32.075Z,10
2018-08-03T06:08:12.863Z,10
2018-08-03T06:08:53.625Z,10
2018-08-03T06:09:34.449Z,10
2018-08-03T06:10:15.167Z,10
2018-08-03T06:10:57.221Z,10
2018-08-03T06:11:37.936Z,10
2018-08-03T06:12:18.812Z,10
2018-08-03T06:12:59.626Z,10
2018-08-03T06:13:40.438Z,10
2018-08-03T06:14:21.201Z,10
2018-08-03T06:15:01.949Z,10
2018-08-03T06:15:42.783Z,10
2018-08-03T06:16:23.625Z,10
2018-08-03T06:17:04.384Z,10
2018-08-03T06:17:45.153Z,10
2018-08-03T06:18:25.925Z,10
2018-08-03T06:19:06.785Z,10
2018-08-03T06:19:47.561Z,10
2018-08-03T06:20:28.292Z,15
2018-08-03T06:21:09.054Z,15
2018-08-03T06:21:49.873Z,15
2018-08-03T06:22:30.676Z,15
2018-08-03T06:23:11.477Z,15
2018-08-03T06:23:52.208Z,15
2018-08-03T06:24:33.044Z,15
2018-08-03T06:25:13.835Z,20
2018-08-03T06:25:54.679Z,30
2018-08-03T06:26:35.413Z,35
2018-08-03T06:27:16.167Z,35
2018-08-03T06:27:57.024Z,35
2018-08-03T06:28:37.748Z,35
2018-08-03T06:29:18.465Z,40
2018-08-03T06:29:59.228Z,40
2018-08-03T06:30:40.029Z,45
2018-08-03T06:31:20.901Z,50
2018-08-03T06:32:01.769Z,55
2018-08-03T06:32:42.580Z,55
2018-08-03T06:33:23.327Z,55
2018-08-03T06:34:04.086Z,60
2018-08-03T06:34:44.840Z,60
2018-08-03T06:35:25.667Z,60
2018-08-03T06:36:06.439Z,60
2018-08-03T06:36:47.212Z,60
2018-08-03T06:37:28.014Z,60
2018-08-03T06:38:08.838Z,60
2018-08-03T06:38:49.614Z,60
2018-08-03T06:39:30.332Z,60
2018-08-03T06:40:11.087Z,65
2018-08-03T06:40:51.939Z,65
2018-08-03T06:41:32.660Z,65
2018-08-03T06:42:13.405Z,65
2018-08-03T06:42:54.138Z,65
2018-08-03T06:43:34.946Z,65
2018-08-03T06:44:15.789Z,65
2018-08-03T06:44:56.587Z,65
2018-08-03T06:45:37.325Z,70
2018-08-03T06:46:18.175Z,70
2018-08-03T06:46:58.996Z,70
2018-08-03T06:47:39.795Z,70
2018-08-03T06:48:20.547Z,70
2018-08-03T06:49:01.280Z,70
2018-08-03T06:49:42.040Z,70
2018-08-03T06:50:22.884Z,70
2018-08-03T06:51:03.721Z,70
2018-08-03T06:51:44.617Z,70
2018-08-03T06:52:25.397Z,70
2018-08-03T06:53:06.147Z,70
2018-08-03T06:53:47.045Z,75
2018-08-03T06:54:27.789Z,125
2018-08-03T06:55:08.547Z,115
2018-08-03T06:55:49.309Z,115
2018-08-03T06:56:30.057Z,115
2018-08-03T06:57:11.026Z,120
2018-08-03T06:57:51.836Z,120
2018-08-03T06:58:32.662Z,120
2018-08-03T06:59:13.576Z,125
2018-08-03T06:59:54.467Z,125
2018-08-03T07:00:35.383Z,130
2018-08-03T07:01:16.213Z,130
2018-08-03T07:01:57.076Z,135
2018-08-03T07:02:37.854Z,135
2018-08-03T07:03:18.684Z,140
2018-08-03T07:03:59.500Z,145
2018-08-03T07:04:40.346Z,145
2018-08-03T07:05:21.110Z,155
2018-08-03T07:06:01.852Z,160
2018-08-03T07:06:42.663Z,175
2018-08-03T07:07:23.512Z,265
2018-08-03T07:08:04.360Z,420
2018-08-03T07:08:45.202Z,585
2018-08-03T07:09:26.033Z,735
2018-08-03T07:10:06.792Z,800
2018-08-03T07:10:47.542Z,790
2018-08-03T07:11:28.422Z,800
2018-08-03T07:12:09.157Z,805
2018-08-03T07:12:49.897Z,795
2018-08-03T07:13:30.659Z,790
2018-08-03T07:14:11.448Z,625
2018-08-03T07:14:52.309Z,370
2018-08-03T07:15:33.003Z,175
2018-08-03T07:16:13.761Z,160
2018-08-03T07:16:54.588Z,155
2018-08-03T07:17:35.445Z,155
2018-08-03T07:18:16.165Z,150
2018-08-03T07:18:56.964Z,150
2018-08-03T07:19:37.803Z,150
2018-08-03T07:20:18.769Z,150
2018-08-03T07:20:59.445Z,150
2018-08-03T07:21:40.169Z,155
2018-08-03T07:22:20.955Z,160
2018-08-03T07:23:01.829Z,170
2018-08-03T07:23:42.607Z,175
2018-08-03T07:24:23.417Z,180
2018-08-03T07:25:04.180Z,185
2018-08-03T07:25:44.907Z,185
2018-08-03T07:26:25.645Z,190
2018-08-03T07:27:07.339Z,195
2018-08-03T07:27:48.175Z,200
2018-08-03T07:28:28.926Z,205
2018-08-03T07:29:09.666Z,210
2018-08-03T07:29:50.491Z,215
2018-08-03T07:30:31.318Z,225
2018-08-03T07:31:12.132Z,240
2018-08-03T07:31:52.896Z,255
2018-08-03T07:32:33.664Z,290
2018-08-03T07:33:14.417Z,555
2018-08-03T07:33:55.234Z,875
2018-08-03T07:34:36.024Z,1065
2018-08-03T07:35:16.873Z,1075
2018-08-03T07:35:57.600Z,1090
2018-08-03T07:36:38.351Z,1105
2018-08-03T07:37:19.210Z,1130
2018-08-03T07:37:59.985Z,1130
2018-08-03T07:38:40.744Z,1145
2018-08-03T07:39:21.490Z,1140
2018-08-03T07:40:02.340Z,1155
2018-08-03T07:40:43.128Z,1170
2018-08-03T07:41:23.978Z,1185
2018-08-03T07:42:04.811Z,1190
2018-08-03T07:42:45.539Z,1180
2018-08-03T07:43:26.292Z,1180
2018-08-03T07:44:07.040Z,1210
2018-08-03T07:44:47.850Z,1240
2018-08-03T07:45:28.615Z,1225
2018-08-03T07:46:09.404Z,1220
2018-08-03T07:46:50.182Z,1225
2018-08-03T07:47:31.043Z,1225
2018-08-03T07:48:11.966Z,1220
2018-08-03T07:48:52.777Z,1205
2018-08-03T07:49:33.532Z,1225
2018-08-03T07:50:14.378Z,1245
2018-08-03T07:50:55.115Z,1260
2018-08-03T07:51:35.892Z,1250
2018-08-03T07:52:16.650Z,1250
2018-08-03T07:52:57.367Z,1240
2018-08-03T07:53:38.242Z,1255
2018-08-03T07:54:19.026Z,1285
2018-08-03T07:54:59.813Z,1295
2018-08-03T07:55:40.644Z,1300
2018-08-03T07:56:21.425Z,1285
2018-08-03T07:57:02.276Z,1300
2018-08-03T07:57:43.036Z,1290
2018-08-03T07:58:23.812Z,1285
2018-08-03T07:59:04.538Z,1285
2018-08-03T07:59:45.409Z,1290
2018-08-03T08:00:26.207Z,1290
2018-08-03T08:01:07.108Z,1260
2018-08-03T08:01:47.904Z,1235
2018-08-03T08:02:28.612Z,1235
2018-08-03T08:03:09.478Z,1235
2018-08-03T08:03:50.312Z,1245
2018-08-03T08:04:31.066Z,1260
2018-08-03T08:05:11.835Z,1240
2018-08-03T08:05:52.568Z,1210
2018-08-03T08:06:33.401Z,1200
2018-08-03T08:07:14.277Z,1195
2018-08-03T08:07:55.084Z,1195
2018-08-03T08:08:35.851Z,1195
2018-08-03T08:09:16.579Z,1160
2018-08-03T08:09:57.339Z,1125
2018-08-03T08:10:38.156Z,1100
2018-08-03T08:11:18.927Z,1065
2018-08-03T08:11:59.707Z,1090
2018-08-03T08:12:40.539Z,1130
2018-08-03T08:13:21.355Z,1150
2018-08-03T08:14:02.202Z,1165
2018-08-03T08:14:43.027Z,1165
2018-08-03T08:15:23.784Z,1160
2018-08-03T08:16:04.517Z,1145
2018-08-03T08:16:45.395Z,1165
2018-08-03T08:17:26.254Z,1175
2018-08-03T08:18:07.021Z,1155
2018-08-03T08:18:47.826Z,1120
2018-08-03T08:19:28.748Z,1075
2018-08-03T08:20:09.491Z,1070
2018-08-03T08:20:50.370Z,1055
2018-08-03T08:21:31.179Z,1060
2018-08-03T08:22:12.012Z,1055
2018-08-03T08:22:52.759Z,1060
2018-08-03T08:23:33.548Z,1060
2018-08-03T08:24:14.337Z,1095
2018-08-03T08:24:55.088Z,1130
2018-08-03T08:25:35.809Z,1200
2018-08-03T08:26:16.686Z,1295
2018-08-03T08:26:57.510Z,1375
2018-08-03T08:27:38.273Z,1465
2018-08-03T08:28:19.033Z,1580
2018-08-03T08:28:59.856Z,1680
2018-08-03T08:29:40.737Z,1735
2018-08-03T08:30:21.490Z,1670
2018-08-03T08:31:02.246Z,1610
2018-08-03T08:31:43.034Z,1590
2018-08-03T08:32:23.800Z,1595
2018-08-03T08:33:04.589Z,1475
2018-08-03T08:33:45.421Z,1345
2018-08-03T08:34:26.227Z,1210
2018-08-03T08:35:06.991Z,1095
2018-08-03T08:35:47.770Z,955
2018-08-03T08:36:28.493Z,810
2018-08-03T08:37:09.342Z,700
2018-08-03T08:37:50.130Z,675
2018-08-03T08:38:30.859Z,745
2018-08-03T08:39:11.727Z,820
2018-08-03T08:39:52.570Z,845
2018-08-03T08:40:33.435Z,820
2018-08-03T08:41:14.303Z,765
2018-08-03T08:41:55.021Z,700
2018-08-03T08:42:35.913Z,650
2018-08-03T08:43:16.729Z,625
2018-08-03T08:43:57.587Z,590
2018-08-03T08:44:38.238Z,550
2018-08-03T08:45:19.082Z,525
2018-08-03T08:45:59.935Z,525
2018-08-03T08:46:40.694Z,585
2018-08-03T08:47:21.426Z,705
2018-08-03T08:48:02.333Z,790
2018-08-03T08:48:43.129Z,760
2018-08-03T08:49:23.952Z,645
2018-08-03T08:50:04.705Z,535
2018-08-03T08:50:45.419Z,570
2018-08-03T08:51:26.151Z,660
2018-08-03T08:52:06.896Z,675
2018-08-03T08:52:47.734Z,510
2018-08-03T08:53:28.609Z,295
2018-08-03T08:54:09.409Z,165
2018-08-03T08:54:50.299Z,145
2018-08-03T08:55:30.966Z,130
2018-08-03T08:56:11.741Z,125
2018-08-03T08:56:52.457Z,125
2018-08-03T08:57:33.166Z,125
2018-08-03T08:58:13.911Z,120
2018-08-03T08:58:54.719Z,120
2018-08-03T08:59:35.495Z,115
2018-08-03T09:00:16.223Z,110
2018-08-03T09:00:57.129Z,110
2018-08-03T09:01:37.831Z,105
2018-08-03T09:02:18.727Z,100
2018-08-03T09:02:59.487Z,100
2018-08-03T09:03:40.284Z,95
2018-08-03T09:04:21.244Z,95
2018-08-03T09:05:01.840Z,90
2018-08-03T09:05:42.587Z,90
2018-08-03T09:06:23.334Z,85
2018-08-03T09:07:04.061Z,85
2018-08-03T09:07:44.971Z,80
2018-08-03T09:08:25.775Z,80
2018-08-03T09:09:06.536Z,80
2018-08-03T09:09:47.293Z,75
2018-08-03T09:10:28.068Z,75
2018-08-03T09:11:08.826Z,75
2018-08-03T09:11:49.680Z,75
2018-08-03T09:12:30.560Z,70
2018-08-03T09:13:11.348Z,70
2018-08-03T09:13:52.123Z,70
2018-08-03T09:14:32.941Z,65
2018-08-03T09:15:13.787Z,65
2018-08-03T09:15:54.585Z,65
2018-08-03T09:16:35.298Z,65
2018-08-03T09:17:16.082Z,65
2018-08-03T09:17:56.907Z,65
2018-08-03T09:18:37.751Z,65
2018-08-03T09:19:18.571Z,60
2018-08-03T09:19:59.400Z,60
2018-08-03T09:20:40.185Z,60
2018-08-03T09:21:20.979Z,60
2018-08-03T09:22:01.842Z,60
2018-08-03T09:22:42.538Z,60
2018-08-03T09:23:23.259Z,60
2018-08-03T09:24:03.998Z,60
2018-08-03T09:24:44.870Z,60
2018-08-03T09:25:25.688Z,60
2018-08-03T09:26:06.475Z,60
2018-08-03T09:26:47.244Z,60
2018-08-03T09:27:27.966Z,60
2018-08-03T09:28:08.736Z,60
2018-08-03T09:28:49.491Z,60
2018-08-03T09:29:30.322Z,60
2018-08-03T09:30:11.061Z,55
2018-08-03T09:30:51.820Z,60
2018-08-03T09:31:32.632Z,55
2018-08-03T09:32:13.441Z,55
2018-08-03T09:32:54.277Z,55
2018-08-03T09:33:35.003Z,55
2018-08-03T09:34:15.757Z,55
2018-08-03T09:34:56.627Z,55
2018-08-03T09:35:37.335Z,55
2018-08-03T09:36:18.079Z,55
2018-08-03T09:36:58.848Z,55
2018-08-03T09:37:39.625Z,55
2018-08-03T09:38:20.515Z,55
2018-08-03T09:39:01.223Z,55
2018-08-03T09:39:42.040Z,55
2018-08-03T09:40:22.930Z,55
2018-08-03T09:41:03.747Z,55
2018-08-03T09:41:44.578Z,55
2018-08-03T09:42:25.265Z,55
2018-08-03T09:43:06.017Z,55
2018-08-03T09:43:46.836Z,55
2018-08-03T09:44:27.669Z,55
2018-08-03T09:45:08.461Z,55
2018-08-03T09:45:49.355Z,55
2018-08-03T09:46:30.120Z,55
2018-08-03T09:47:10.875Z,55
2018-08-03T09:47:51.710Z,50
2018-08-03T09:48:32.522Z,50
2018-08-03T09:49:13.292Z,50
2018-08-03T09:49:54.007Z,50
2018-08-03T09:50:34.746Z,50
2018-08-03T09:51:15.613Z,55
2018-08-03T09:51:56.427Z,50
2018-08-03T09:52:37.313Z,55
2018-08-03T09:53:18.072Z,50
2018-08-03T09:53:58.794Z,50
2018-08-03T09:54:39.529Z,50
2018-08-03T09:55:20.443Z,50
2018-08-03T09:56:01.166Z,50
2018-08-03T09:56:41.901Z,50
2018-08-03T09:57:22.664Z,50
2018-08-03T09:58:03.479Z,50
2018-08-03T09:58:44.322Z,50
2018-08-03T09:59:25.077Z,50
2018-08-03T10:00:05.838Z,50
2018-08-03T10:00:46.550Z,50
2018-08-03T10:01:27.344Z,50
2018-08-03T10:02:08.198Z,50
2018-08-03T10:02:49.032Z,50
2018-08-03T10:03:29.888Z,50
2018-08-03T10:04:10.615Z,50
2018-08-03T10:04:51.400Z,50
2018-08-03T10:05:32.212Z,50
2018-08-03T10:06:12.967Z,50